createdAt,value
2018-04-18T00:00:56.761Z,25.20
2018-04-18T00:01:56.738Z,25.00
2018-04-18T00:02:56.707Z,23.20
2018-04-18T00:03:56.684Z,26.80
2018-04-18T00:04:56.657Z,31.40
2018-04-18T00:05:56.633Z,22.60
2018-04-18T00:06:56.606Z,23.70
2018-04-18T00:07:56.586Z,29.20
2018-04-18T00:08:56.556Z,29.60
2018-04-18T00:09:56.530Z,24.70
2018-04-18T00:10:56.507Z,22.80
2018-04-18T00:11:56.479Z,26.20
2018-04-18T00:12:56.454Z,26.10
2018-04-18T00:13:56.429Z,20.90
2018-04-18T00:14:56.403Z,25.60
2018-04-18T00:15:56.377Z,28.50
2018-04-18T00:16:56.352Z,24.30
2018-04-18T00:17:56.336Z,25.20
2018-04-18T00:18:56.304Z,25.10
2018-04-18T00:19:56.280Z,23.90
2018-04-18T00:20:56.250Z,24.60
2018-04-18T00:21:56.224Z,24.30
2018-04-18T00:22:56.198Z,27.30
2018-04-18T00:23:56.173Z,21.80
2018-04-18T00:24:56.148Z,25.20
2018-04-18T00:25:56.123Z,24.30
2018-04-18T00:26:56.117Z,23.00
2018-04-18T00:27:56.070Z,24.90
2018-04-18T00:28:56.045Z,28.50
2018-04-18T00:29:56.019Z,28.70
2018-04-18T00:30:55.995Z,27.60
2018-04-18T00:31:55.968Z,22.80
2018-04-18T00:32:55.943Z,21.90
2018-04-18T00:33:55.917Z,25.70
2018-04-18T00:34:55.891Z,21.70
2018-04-18T00:35:55.870Z,19.30
2018-04-18T00:36:55.840Z,26.40
2018-04-18T00:37:55.815Z,27.50
2018-04-18T00:38:55.792Z,28.70
2018-04-18T00:39:55.768Z,25.20
2018-04-18T00:40:55.738Z,23.80
2018-04-18T00:41:55.714Z,22.70
2018-04-18T00:42:55.685Z,23.10
2018-04-18T00:43:55.660Z,25.10
2018-04-18T00:44:55.635Z,26.50
2018-04-18T00:45:55.609Z,21.90
2018-04-18T00:46:55.583Z,24.60
2018-04-18T00:47:55.564Z,22.30
2018-04-18T00:48:55.532Z,24.80
2018-04-18T00:49:55.510Z,28.40
2018-04-18T00:50:55.483Z,24.90
2018-04-18T00:51:55.459Z,23.00
2018-04-18T00:52:55.435Z,26.90
2018-04-18T00:53:55.403Z,28.50
2018-04-18T00:54:55.377Z,25.90
2018-04-18T00:55:55.363Z,20.00
2018-04-18T00:56:55.326Z,22.20
2018-04-18T00:57:55.305Z,28.50
2018-04-18T00:58:55.274Z,27.10
2018-04-18T00:59:55.256Z,27.10
2018-04-18T01:00:55.225Z,23.40
2018-04-18T01:01:55.200Z,28.20
2018-04-18T01:02:55.175Z,25.10
2018-04-18T01:03:55.149Z,23.70
2018-04-18T01:04:55.121Z,21.00
2018-04-18T01:05:55.094Z,24.90
2018-04-18T01:06:55.071Z,24.60
2018-04-18T01:07:55.047Z,26.70
2018-04-18T01:08:55.017Z,26.50
2018-04-18T01:09:54.991Z,26.00
2018-04-18T01:10:54.964Z,22.00
2018-04-18T01:11:54.939Z,20.70
2018-04-18T01:12:54.914Z,24.80
2018-04-18T01:13:54.908Z,24.60
2018-04-18T01:14:54.861Z,22.10
2018-04-18T01:15:54.836Z,27.40
2018-04-18T01:16:54.809Z,26.00
2018-04-18T01:17:54.791Z,27.90
2018-04-18T01:18:54.757Z,28.80
2018-04-18T01:19:54.732Z,25.00
2018-04-18T01:20:54.706Z,25.40
2018-04-18T01:21:54.680Z,23.50
2018-04-18T01:22:54.654Z,29.10
2018-04-18T01:23:54.628Z,25.80
2018-04-18T01:24:54.602Z,26.90
2018-04-18T01:25:54.576Z,25.40
2018-04-18T01:26:54.551Z,26.20
2018-04-18T01:27:54.534Z,30.10
2018-04-18T01:28:54.498Z,23.40
2018-04-18T01:29:54.473Z,28.80
2018-04-18T01:30:54.446Z,23.30
2018-04-18T01:31:54.424Z,21.20
2018-04-18T01:32:54.398Z,21.90
2018-04-18T01:33:54.369Z,27.10
2018-04-18T01:34:54.342Z,31.10
2018-04-18T01:35:54.317Z,26.80
2018-04-18T01:36:54.291Z,28.10
2018-04-18T01:37:54.265Z,30.20
2018-04-18T01:38:54.238Z,32.90
2018-04-18T01:39:54.227Z,29.90
2018-04-18T01:40:54.186Z,22.00
2018-04-18T01:41:54.161Z,26.40
2018-04-18T01:42:54.149Z,27.20
2018-04-18T01:43:54.108Z,24.90
2018-04-18T01:44:54.082Z,29.30
2018-04-18T01:45:54.058Z,27.20
2018-04-18T01:46:54.031Z,22.30
2018-04-18T01:47:54.005Z,25.10
2018-04-18T01:48:53.979Z,24.20
2018-04-18T01:49:53.953Z,25.70
2018-04-18T01:50:53.926Z,26.00
2018-04-18T01:51:53.901Z,29.00
2018-04-18T01:52:53.876Z,27.10
2018-04-18T01:53:53.857Z,30.10
2018-04-18T01:54:53.823Z,26.30
2018-04-18T01:55:53.797Z,25.20
2018-04-18T01:56:53.772Z,26.60
2018-04-18T01:57:53.752Z,32.30
2018-04-18T01:58:53.718Z,24.30
2018-04-18T01:59:53.700Z,29.20
2018-04-18T02:00:53.667Z,26.00
2018-04-18T02:01:53.642Z,24.80
2018-04-18T02:02:53.621Z,27.10
2018-04-18T02:03:53.589Z,29.10
2018-04-18T02:04:53.565Z,25.30
2018-04-18T02:05:53.537Z,26.60
2018-04-18T02:06:53.513Z,27.20
2018-04-18T02:07:53.486Z,29.10
2018-04-18T02:08:53.458Z,29.00
2018-04-18T02:09:53.435Z,33.50
2018-04-18T02:10:53.406Z,24.00
2018-04-18T02:11:53.384Z,26.00
2018-04-18T02:12:53.354Z,24.50
2018-04-18T02:13:53.328Z,27.40
2018-04-18T02:14:53.307Z,29.70
2018-04-18T02:15:53.275Z,31.50
2018-04-18T02:16:53.249Z,23.50
2018-04-18T02:17:53.231Z,26.80
2018-04-18T02:18:53.196Z,24.60
2018-04-18T02:19:53.170Z,25.20
2018-04-18T02:20:53.145Z,25.70
2018-04-18T02:21:53.119Z,26.80
2018-04-18T02:22:53.095Z,24.80
2018-04-18T02:23:53.069Z,27.50
2018-04-18T02:24:53.042Z,28.10
2018-04-18T02:25:53.015Z,29.80
2018-04-18T02:26:52.990Z,28.30
2018-04-18T02:27:52.965Z,32.80
2018-04-18T02:28:52.941Z,28.00
2018-04-18T02:29:52.910Z,29.40
2018-04-18T02:30:52.885Z,29.50
2018-04-18T02:31:52.857Z,27.90
2018-04-18T02:32:52.838Z,34.80
2018-04-18T02:33:52.806Z,30.60
2018-04-18T02:34:52.778Z,31.80
2018-04-18T02:35:52.752Z,23.30
2018-04-18T02:36:52.726Z,25.60
2018-04-18T02:37:52.702Z,27.10
2018-04-18T02:38:52.674Z,30.20
2018-04-18T02:39:52.647Z,24.90
2018-04-18T02:40:52.624Z,28.40
2018-04-18T02:41:52.595Z,29.50
2018-04-18T02:42:52.631Z,26.00
2018-04-18T02:43:52.546Z,28.40
2018-04-18T02:44:52.517Z,28.70
2018-04-18T02:45:52.490Z,25.90
2018-04-18T02:46:52.464Z,28.40
2018-04-18T02:47:52.437Z,26.30
2018-04-18T02:48:52.411Z,25.10
2018-04-18T02:49:52.385Z,25.70
2018-04-18T02:50:52.358Z,29.10
2018-04-18T02:51:52.332Z,29.60
2018-04-18T02:52:52.308Z,33.70
2018-04-18T02:53:52.284Z,25.90
2018-04-18T02:54:52.252Z,26.30
2018-04-18T02:55:52.227Z,27.40
2018-04-18T02:56:52.201Z,29.10
2018-04-18T02:57:52.182Z,29.50
2018-04-18T02:58:52.147Z,28.40
2018-04-18T02:59:52.121Z,25.60
2018-04-18T03:00:52.097Z,29.80
2018-04-18T03:01:52.069Z,24.40
2018-04-18T03:02:52.042Z,23.70
2018-04-18T03:03:52.016Z,26.20
2018-04-18T03:04:51.990Z,25.60
2018-04-18T03:05:51.964Z,22.80
2018-04-18T03:06:51.939Z,23.30
2018-04-18T03:07:51.911Z,25.90
2018-04-18T03:08:51.885Z,30.90
2018-04-18T03:09:51.868Z,30.00
2018-04-18T03:10:51.832Z,23.00
2018-04-18T03:11:51.805Z,26.80
2018-04-18T03:12:51.782Z,31.10
2018-04-18T03:13:51.755Z,26.80
2018-04-18T03:14:51.730Z,26.70
2018-04-18T03:15:51.701Z,29.40
2018-04-18T03:16:51.677Z,30.20
2018-04-18T03:17:51.648Z,33.80
2018-04-18T03:18:51.627Z,26.30
2018-04-18T03:19:51.595Z,29.10
2018-04-18T03:20:51.569Z,33.10
2018-04-18T03:21:51.543Z,27.80
2018-04-18T03:22:51.520Z,32.00
2018-04-18T03:23:51.489Z,27.10
2018-04-18T03:24:51.464Z,33.10
2018-04-18T03:25:51.437Z,36.10
2018-04-18T03:26:51.410Z,30.00
2018-04-18T03:27:51.384Z,30.30
2018-04-18T03:28:51.358Z,35.70
2018-04-18T03:29:51.336Z,30.10
2018-04-18T03:30:51.306Z,31.70
2018-04-18T03:31:51.342Z,33.90
2018-04-18T03:32:51.256Z,32.20
2018-04-18T03:33:51.232Z,30.10
2018-04-18T03:34:51.200Z,30.20
2018-04-18T03:35:51.220Z,28.30
2018-04-18T03:36:51.148Z,37.60
2018-04-18T03:37:51.122Z,35.40
2018-04-18T03:38:51.095Z,30.50
2018-04-18T03:39:51.068Z,34.20
2018-04-18T03:40:51.053Z,37.50
2018-04-18T03:41:51.017Z,29.90
2018-04-18T03:42:50.988Z,36.10
2018-04-18T03:43:50.962Z,34.00
2018-04-18T03:44:50.937Z,30.50
2018-04-18T03:45:50.910Z,32.50
2018-04-18T03:46:50.893Z,32.40
2018-04-18T03:47:50.856Z,31.50
2018-04-18T03:48:50.831Z,33.90
2018-04-18T03:49:50.804Z,28.90
2018-04-18T03:50:50.777Z,33.50
2018-04-18T03:51:50.751Z,27.40
2018-04-18T03:52:50.725Z,31.40
2018-04-18T03:53:50.698Z,31.60
2018-04-18T03:54:50.671Z,27.60
2018-04-18T03:55:50.644Z,31.70
2018-04-18T03:56:50.617Z,32.70
2018-04-18T03:57:50.594Z,35.60
2018-04-18T03:58:50.564Z,32.40
2018-04-18T03:59:50.548Z,29.60
2018-04-18T04:00:50.512Z,32.10
2018-04-18T04:01:50.485Z,27.60
2018-04-18T04:02:50.459Z,31.10
2018-04-18T04:03:50.432Z,27.10
2018-04-18T04:04:50.406Z,34.90
2018-04-18T04:05:50.380Z,30.30
2018-04-18T04:06:50.352Z,33.50
2018-04-18T04:07:50.328Z,30.40
2018-04-18T04:08:50.301Z,27.70
2018-04-18T04:09:50.281Z,30.20
2018-04-18T04:10:50.247Z,34.20
2018-04-18T04:11:50.221Z,37.70
2018-04-18T04:12:50.197Z,34.10
2018-04-18T04:13:50.167Z,30.80
2018-04-18T04:14:50.140Z,33.00
2018-04-18T04:15:50.120Z,36.40
2018-04-18T04:16:50.089Z,35.30
2018-04-18T04:17:50.063Z,34.90
2018-04-18T04:18:50.037Z,40.30
2018-04-18T04:19:50.008Z,33.10
2018-04-18T04:20:49.982Z,31.10
2018-04-18T04:21:49.956Z,37.00
2018-04-18T04:22:49.928Z,29.30
2018-04-18T04:23:49.906Z,33.80
2018-04-18T04:24:49.924Z,30.20
2018-04-18T04:25:49.850Z,35.80
2018-04-18T04:26:49.822Z,38.70
2018-04-18T04:27:49.796Z,33.80
2018-04-18T04:28:49.771Z,35.30
2018-04-18T04:29:49.744Z,32.60
2018-04-18T04:30:49.717Z,35.20
2018-04-18T04:31:49.689Z,34.80
2018-04-18T04:32:49.664Z,31.80
2018-04-18T04:33:49.637Z,34.20
2018-04-18T04:34:49.610Z,40.20
2018-04-18T04:35:49.585Z,33.90
2018-04-18T04:36:49.558Z,32.90
2018-04-18T04:37:49.532Z,32.50
2018-04-18T04:38:49.505Z,36.90
2018-04-18T04:39:49.479Z,39.80
2018-04-18T04:40:49.453Z,34.70
2018-04-18T04:41:49.429Z,29.90
2018-04-18T04:42:49.400Z,37.80
2018-04-18T04:43:49.374Z,35.10
2018-04-18T04:44:49.399Z,35.60
2018-04-18T04:45:49.323Z,32.10
2018-04-18T04:46:49.295Z,36.60
2018-04-18T04:47:49.272Z,32.10
2018-04-18T04:48:49.243Z,34.80
2018-04-18T04:49:49.217Z,36.20
2018-04-18T04:50:49.190Z,32.60
2018-04-18T04:51:49.165Z,38.70
2018-04-18T04:52:49.139Z,41.00
2018-04-18T04:53:49.126Z,35.30
2018-04-18T04:54:49.086Z,36.10
2018-04-18T04:55:49.060Z,32.10
2018-04-18T04:56:49.041Z,33.00
2018-04-18T04:57:49.017Z,35.40
2018-04-18T04:58:48.982Z,36.40
2018-04-18T04:59:48.956Z,34.00
2018-04-18T05:00:48.931Z,35.90
2018-04-18T05:01:48.907Z,33.00
2018-04-18T05:02:48.878Z,39.10
2018-04-18T05:03:48.854Z,34.70
2018-04-18T05:04:48.829Z,37.40
2018-04-18T05:05:48.804Z,39.70
2018-04-18T05:06:48.774Z,43.80
2018-04-18T05:07:48.750Z,39.50
2018-04-18T05:08:48.730Z,42.10
2018-04-18T05:09:48.701Z,41.80
2018-04-18T05:10:48.675Z,43.50
2018-04-18T05:11:48.651Z,44.30
2018-04-18T05:12:48.620Z,42.40
2018-04-18T05:13:48.595Z,38.40
2018-04-18T05:14:48.569Z,40.60
2018-04-18T05:15:48.543Z,43.40
2018-04-18T05:16:48.520Z,37.70
2018-04-18T05:17:48.498Z,40.70
2018-04-18T05:18:48.466Z,38.00
2018-04-18T05:19:48.444Z,35.70
2018-04-18T05:20:48.415Z,36.60
2018-04-18T05:21:48.396Z,37.50
2018-04-18T05:22:48.368Z,37.60
2018-04-18T05:23:48.347Z,42.10
2018-04-18T05:24:48.320Z,33.90
2018-04-18T05:25:48.289Z,31.20
2018-04-18T05:26:48.264Z,29.30
2018-04-18T05:27:48.239Z,32.70
2018-04-18T05:28:48.214Z,32.90
2018-04-18T05:29:48.189Z,33.90
2018-04-18T05:30:48.164Z,25.70
2018-04-18T05:31:48.146Z,30.30
2018-04-18T05:32:48.119Z,31.00
2018-04-18T05:33:48.090Z,24.30
2018-04-18T05:34:48.066Z,24.80
2018-04-18T05:35:48.041Z,25.50
2018-04-18T05:36:48.017Z,31.00
2018-04-18T05:37:47.993Z,23.90
2018-04-18T05:38:47.983Z,31.00
2018-04-18T05:39:47.945Z,28.10
2018-04-18T05:40:47.922Z,20.30
2018-04-18T05:41:47.898Z,26.70
2018-04-18T05:42:47.877Z,19.20
2018-04-18T05:43:47.854Z,20.30
2018-04-18T05:44:47.828Z,26.30
2018-04-18T05:45:47.808Z,24.70
2018-04-18T05:46:47.814Z,22.10
2018-04-18T05:47:47.757Z,23.60
2018-04-18T05:48:47.734Z,25.50
2018-04-18T05:49:47.712Z,25.70
2018-04-18T05:50:47.688Z,25.20
2018-04-18T05:51:47.666Z,31.30
2018-04-18T05:52:47.647Z,26.10
2018-04-18T05:53:47.624Z,27.50
2018-04-18T05:54:47.598Z,31.30
2018-04-18T05:55:47.576Z,26.20
2018-04-18T05:56:47.553Z,24.50
2018-04-18T05:57:47.532Z,27.60
2018-04-18T05:58:47.509Z,28.50
2018-04-18T05:59:47.487Z,23.20
2018-04-18T06:00:47.465Z,25.00
2018-04-18T06:01:47.452Z,21.80
2018-04-18T06:02:47.422Z,23.00
2018-04-18T06:03:47.400Z,24.20
2018-04-18T06:04:47.462Z,29.70
2018-04-18T06:05:47.362Z,26.80
2018-04-18T06:06:47.340Z,26.60
2018-04-18T06:07:47.316Z,25.80
2018-04-18T06:08:47.295Z,27.60
2018-04-18T06:09:47.274Z,39.50
2018-04-18T06:10:47.251Z,38.70
2018-04-18T06:11:47.252Z,40.50
2018-04-18T06:12:47.210Z,34.10
2018-04-18T06:13:47.191Z,33.90
2018-04-18T06:14:47.170Z,35.70
2018-04-18T06:15:47.151Z,36.90
2018-04-18T06:16:47.131Z,27.10
2018-04-18T06:17:47.107Z,34.20
2018-04-18T06:18:47.086Z,27.40
2018-04-18T06:19:47.069Z,26.60
2018-04-18T06:20:47.053Z,26.90
2018-04-18T06:21:47.028Z,29.80
2018-04-18T06:22:47.004Z,32.60
2018-04-18T06:23:46.985Z,27.30
2018-04-18T06:24:46.964Z,36.80
2018-04-18T06:25:46.945Z,33.50
2018-04-18T06:26:46.924Z,39.80
2018-04-18T06:27:46.908Z,36.00
2018-04-18T06:28:46.885Z,36.10
2018-04-18T06:29:46.867Z,38.60
2018-04-18T06:30:46.845Z,37.50
2018-04-18T06:31:46.826Z,44.00
2018-04-18T06:32:46.810Z,34.80
2018-04-18T06:33:46.789Z,38.60
2018-04-18T06:34:46.768Z,37.70
2018-04-18T06:35:46.760Z,46.80
2018-04-18T06:36:46.731Z,36.50
2018-04-18T06:37:46.711Z,43.60
2018-04-18T06:38:46.693Z,39.70
2018-04-18T06:39:46.675Z,35.30
2018-04-18T06:40:46.654Z,40.20
2018-04-18T06:41:46.637Z,32.60
2018-04-18T06:42:46.617Z,29.40
2018-04-18T06:43:46.605Z,30.50
2018-04-18T06:44:46.581Z,28.90
2018-04-18T06:45:46.562Z,29.50
2018-04-18T06:46:46.542Z,30.60
2018-04-18T06:47:46.525Z,37.00
2018-04-18T06:48:46.507Z,29.70
2018-04-18T06:49:46.498Z,35.70
2018-04-18T06:50:46.471Z,31.00
2018-04-18T06:51:46.453Z,36.00
2018-04-18T06:52:46.437Z,26.70
2018-04-18T06:53:46.423Z,28.90
2018-04-18T06:54:46.399Z,30.70
2018-04-18T06:55:46.385Z,29.10
2018-04-18T06:56:46.367Z,32.80
2018-04-18T06:57:46.352Z,26.50
2018-04-18T06:58:46.331Z,30.00
2018-04-18T06:59:46.313Z,32.60
2018-04-18T07:00:46.309Z,30.50
2018-04-18T07:01:46.279Z,30.40
2018-04-18T07:02:46.261Z,33.60
2018-04-18T07:03:46.249Z,32.80
2018-04-18T07:04:46.228Z,33.00
2018-04-18T07:05:46.211Z,27.30
2018-04-18T07:06:46.195Z,33.20
2018-04-18T07:07:46.176Z,30.00
2018-04-18T07:08:46.161Z,27.70
2018-04-18T07:09:46.148Z,31.70
2018-04-18T07:10:46.139Z,33.50
2018-04-18T07:11:46.117Z,32.60
2018-04-18T07:12:46.096Z,40.40
2018-04-18T07:13:46.099Z,39.40
2018-04-18T07:14:46.061Z,41.50
2018-04-18T07:15:46.046Z,31.30
2018-04-18T07:16:46.031Z,34.50
2018-04-18T07:17:46.012Z,29.70
2018-04-18T07:18:46.002Z,38.80
2018-04-18T07:19:45.981Z,34.00
2018-04-18T07:20:45.966Z,32.50
2018-04-18T07:21:45.978Z,39.40
2018-04-18T07:22:45.932Z,34.00
2018-04-18T07:23:45.918Z,36.10
2018-04-18T07:24:45.901Z,34.80
2018-04-18T07:25:45.902Z,38.00
2018-04-18T07:26:45.876Z,33.30
2018-04-18T07:27:45.857Z,45.30
2018-04-18T07:28:45.851Z,32.10
2018-04-18T07:29:45.842Z,42.90
2018-04-18T07:30:45.806Z,45.10
2018-04-18T07:31:45.809Z,40.30
2018-04-18T07:32:45.782Z,43.80
2018-04-18T07:33:45.761Z,43.40
2018-04-18T07:34:45.744Z,41.90
2018-04-18T07:35:45.729Z,51.90
2018-04-18T07:36:45.716Z,45.90
2018-04-18T07:37:45.702Z,45.90
2018-04-18T07:38:45.683Z,42.80
2018-04-18T07:39:45.669Z,39.30
2018-04-18T07:40:45.693Z,40.60
2018-04-18T07:41:45.640Z,47.40
2018-04-18T07:42:45.638Z,35.80
2018-04-18T07:43:45.620Z,43.10
2018-04-18T07:44:45.598Z,42.10
2018-04-18T07:45:45.578Z,42.20
2018-04-18T07:46:45.568Z,46.00
2018-04-18T07:47:45.555Z,38.40
2018-04-18T07:48:45.536Z,42.80
2018-04-18T07:49:45.519Z,43.10
2018-04-18T07:50:45.510Z,44.40
2018-04-18T07:51:45.501Z,42.70
2018-04-18T07:52:45.483Z,44.70
2018-04-18T07:53:45.462Z,42.00
2018-04-18T07:54:45.450Z,43.60
2018-04-18T07:55:45.433Z,42.40
2018-04-18T07:56:45.423Z,43.60
2018-04-18T07:57:45.406Z,46.30
2018-04-18T07:58:45.395Z,43.90
2018-04-18T07:59:45.386Z,40.40
2018-04-18T08:00:45.362Z,45.40
2018-04-18T08:01:45.355Z,39.60
2018-04-18T08:02:45.333Z,44.50
2018-04-18T08:03:45.322Z,47.20
2018-04-18T08:04:45.306Z,47.60
2018-04-18T08:05:45.304Z,44.20
2018-04-18T08:06:45.276Z,44.30
2018-04-18T08:07:45.302Z,40.00
2018-04-18T08:08:45.268Z,43.50
2018-04-18T08:09:45.254Z,43.10
2018-04-18T08:10:45.228Z,48.60
2018-04-18T08:11:45.237Z,52.30
2018-04-18T08:12:45.205Z,43.40
2018-04-18T08:13:45.203Z,47.70
2018-04-18T08:14:45.165Z,49.30
2018-04-18T08:15:45.152Z,39.20
2018-04-18T08:16:45.167Z,38.20
2018-04-18T08:17:45.125Z,40.70
2018-04-18T08:18:45.115Z,47.10
2018-04-18T08:19:45.099Z,43.60
2018-04-18T08:20:45.092Z,42.10
2018-04-18T08:21:45.144Z,36.90
2018-04-18T08:22:45.056Z,47.00
2018-04-18T08:23:45.050Z,35.10
2018-04-18T08:24:45.030Z,36.10
2018-04-18T08:25:45.017Z,32.40
2018-04-18T08:26:45.012Z,33.50
2018-04-18T08:27:45.005Z,38.50
2018-04-18T08:28:44.981Z,34.50
2018-04-18T08:29:44.968Z,30.50
2018-04-18T08:30:44.949Z,37.00
2018-04-18T08:31:44.937Z,30.00
2018-04-18T08:32:44.929Z,31.70
2018-04-18T08:33:44.929Z,42.40
2018-04-18T08:34:44.898Z,35.40
2018-04-18T08:35:44.884Z,29.70
2018-04-18T08:36:44.871Z,34.00
2018-04-18T08:37:44.859Z,32.20
2018-04-18T08:38:44.846Z,36.30
2018-04-18T08:39:44.836Z,33.50
2018-04-18T08:40:44.839Z,37.20
2018-04-18T08:41:44.806Z,29.70
2018-04-18T08:42:44.792Z,36.60
2018-04-18T08:43:44.779Z,31.00
2018-04-18T08:44:44.768Z,33.10
2018-04-18T08:45:44.756Z,31.30
2018-04-18T08:46:44.742Z,28.60
2018-04-18T08:47:44.733Z,34.50
2018-04-18T08:48:44.717Z,31.10
2018-04-18T08:49:44.710Z,29.60
2018-04-18T08:50:44.693Z,27.80
2018-04-18T08:51:44.685Z,27.30
2018-04-18T08:52:44.675Z,32.80
2018-04-18T08:53:44.658Z,30.00
2018-04-18T08:54:44.646Z,30.90
2018-04-18T08:55:44.632Z,28.30
2018-04-18T08:56:44.621Z,24.80
2018-04-18T08:57:44.613Z,29.10
2018-04-18T08:58:44.596Z,28.20
2018-04-18T08:59:44.585Z,28.40
2018-04-18T09:00:44.588Z,26.60
2018-04-18T09:01:44.567Z,27.20
2018-04-18T09:02:44.572Z,33.70
2018-04-18T09:03:44.536Z,27.90
2018-04-18T09:04:44.527Z,29.30
2018-04-18T09:05:44.520Z,24.60
2018-04-18T09:06:44.507Z,27.60
2018-04-18T09:07:44.488Z,25.70
2018-04-18T09:08:44.476Z,19.90
2018-04-18T09:09:44.515Z,20.80
2018-04-18T09:10:44.968Z,20.40
2018-04-18T09:11:44.462Z,23.50
2018-04-18T09:12:44.429Z,16.80
2018-04-18T09:13:44.418Z,17.30
2018-04-18T09:14:44.405Z,20.50
2018-04-18T09:15:44.445Z,21.70
2018-04-18T09:16:44.383Z,20.20
2018-04-18T09:17:44.375Z,20.60
2018-04-18T09:18:44.358Z,16.00
2018-04-18T09:19:44.355Z,15.90
2018-04-18T09:20:44.337Z,18.50
2018-04-18T09:21:44.331Z,18.20
2018-04-18T09:22:44.313Z,22.20
2018-04-18T09:23:44.301Z,14.70
2018-04-18T09:24:44.290Z,15.50
2018-04-18T09:25:44.305Z,16.80
2018-04-18T09:26:44.267Z,15.90
2018-04-18T09:27:44.255Z,22.40
2018-04-18T09:28:44.244Z,27.80
2018-04-18T09:29:44.234Z,34.30
2018-04-18T09:30:44.222Z,13.60
2018-04-18T09:31:44.210Z,15.70
2018-04-18T09:32:44.207Z,8.80
2018-04-18T09:33:44.195Z,11.30
2018-04-18T09:34:44.177Z,11.10
2018-04-18T09:35:44.167Z,13.50
2018-04-18T09:36:44.154Z,21.70
2018-04-18T09:37:44.142Z,16.30
2018-04-18T09:38:44.129Z,18.00
2018-04-18T09:39:44.136Z,13.50
2018-04-18T09:40:44.142Z,11.70
2018-04-18T09:41:44.097Z,12.50
2018-04-18T09:42:44.084Z,9.50
2018-04-18T09:43:44.072Z,14.40
2018-04-18T09:44:44.065Z,15.30
2018-04-18T09:45:44.050Z,12.50
2018-04-18T09:46:44.039Z,16.10
2018-04-18T09:47:44.030Z,15.90
2018-04-18T09:48:44.019Z,11.90
2018-04-18T09:49:44.060Z,13.80
2018-04-18T09:50:43.994Z,16.30
2018-04-18T09:51:43.981Z,11.30
2018-04-18T09:52:43.970Z,12.60
2018-04-18T09:53:43.961Z,11.30
2018-04-18T09:54:43.947Z,14.80
2018-04-18T09:55:43.937Z,19.20
2018-04-18T09:56:43.928Z,20.90
2018-04-18T09:57:43.916Z,13.90
2018-04-18T09:58:43.909Z,13.00
2018-04-18T09:59:43.903Z,15.70
2018-04-18T10:00:43.878Z,18.90
2018-04-18T10:01:43.865Z,14.20
2018-04-18T10:02:43.852Z,19.90
2018-04-18T10:03:43.843Z,15.20
2018-04-18T10:04:43.846Z,14.10
2018-04-18T10:05:43.818Z,21.00
2018-04-18T10:06:43.808Z,23.20
2018-04-18T10:07:43.795Z,27.30
2018-04-18T10:08:43.785Z,17.10
2018-04-18T10:09:43.781Z,20.10
2018-04-18T10:10:43.760Z,13.90
2018-04-18T10:11:43.749Z,11.10
2018-04-18T10:12:43.739Z,15.80
2018-04-18T10:13:43.727Z,11.30
2018-04-18T10:14:43.716Z,12.60
2018-04-18T10:15:43.704Z,12.50
2018-04-18T10:16:43.697Z,11.10
2018-04-18T10:17:43.684Z,17.50
2018-04-18T10:18:43.669Z,19.70
2018-04-18T10:19:43.665Z,31.20
2018-04-18T10:20:43.650Z,27.10
2018-04-18T10:21:43.636Z,10.90
2018-04-18T10:22:43.626Z,13.60
2018-04-18T10:23:43.622Z,10.30
2018-04-18T10:24:43.604Z,12.20
2018-04-18T10:25:43.591Z,12.20
2018-04-18T10:26:43.578Z,20.90
2018-04-18T10:27:43.569Z,11.00
2018-04-18T10:28:43.557Z,10.60
2018-04-18T10:29:43.546Z,11.20
2018-04-18T10:30:43.533Z,11.40
2018-04-18T10:31:43.522Z,16.10
2018-04-18T10:32:43.516Z,31.40
2018-04-18T10:33:43.500Z,17.30
2018-04-18T10:34:43.487Z,17.00
2018-04-18T10:35:43.495Z,22.80
2018-04-18T10:36:43.465Z,16.00
2018-04-18T10:37:43.457Z,19.60
2018-04-18T10:38:43.456Z,10.60
2018-04-18T10:39:43.434Z,8.50
2018-04-18T10:40:43.432Z,10.40
2018-04-18T10:41:43.426Z,7.20
2018-04-18T10:42:43.413Z,9.50
2018-04-18T10:43:43.481Z,9.70
2018-04-18T10:44:43.399Z,13.60
2018-04-18T10:45:43.401Z,10.60
2018-04-18T10:46:43.382Z,11.90
2018-04-18T10:47:43.363Z,17.90
2018-04-18T10:48:43.355Z,11.60
2018-04-18T10:49:43.354Z,18.80
2018-04-18T10:50:43.344Z,13.10
2018-04-18T10:51:43.307Z,6.50
2018-04-18T10:52:43.334Z,7.60
2018-04-18T10:53:43.319Z,10.70
2018-04-18T10:54:43.266Z,15.00
2018-04-18T10:55:43.256Z,12.30
2018-04-18T10:56:43.247Z,9.30
2018-04-18T10:57:43.235Z,9.80
2018-04-18T10:58:43.223Z,19.70
2018-04-18T10:59:43.215Z,11.90
2018-04-18T11:00:43.251Z,8.20
2018-04-18T11:01:43.277Z,6.30
2018-04-18T11:02:43.179Z,5.80
2018-04-18T11:03:43.172Z,8.10
2018-04-18T11:04:43.180Z,9.70
2018-04-18T11:05:43.153Z,13.30
2018-04-18T11:06:43.139Z,14.70
2018-04-18T11:07:43.124Z,8.80
2018-04-18T11:08:43.114Z,10.80
2018-04-18T11:09:43.104Z,11.90
2018-04-18T11:10:43.093Z,10.60
2018-04-18T11:11:43.081Z,13.00
2018-04-18T11:12:43.095Z,12.60
2018-04-18T11:13:43.128Z,9.10
2018-04-18T11:14:43.047Z,8.60
2018-04-18T11:15:43.077Z,8.90
2018-04-18T11:16:43.057Z,7.90
2018-04-18T11:17:43.044Z,10.00
2018-04-18T11:18:43.040Z,9.50
2018-04-18T11:19:43.004Z,10.40
2018-04-18T11:20:42.982Z,21.50
2018-04-18T11:21:43.000Z,7.90
2018-04-18T11:22:42.961Z,8.50
2018-04-18T11:23:42.952Z,9.90
2018-04-18T11:24:42.954Z,9.90
2018-04-18T11:25:42.934Z,8.60
2018-04-18T11:26:42.917Z,6.50
2018-04-18T11:27:42.914Z,17.00
2018-04-18T11:28:42.906Z,10.20
2018-04-18T11:29:42.947Z,11.00
2018-04-18T11:30:42.879Z,10.20
2018-04-18T11:31:42.895Z,10.40
2018-04-18T11:32:42.878Z,10.30
2018-04-18T11:33:42.871Z,10.80
2018-04-18T11:34:42.832Z,10.30
2018-04-18T11:35:42.916Z,12.90
2018-04-18T11:36:42.870Z,8.60
2018-04-18T11:37:42.809Z,10.80
2018-04-18T11:38:42.808Z,8.50
2018-04-18T11:39:42.849Z,9.60
2018-04-18T11:40:42.776Z,9.90
2018-04-18T11:41:42.760Z,13.10
2018-04-18T11:42:42.748Z,12.10
2018-04-18T11:43:42.751Z,13.60
2018-04-18T11:44:42.737Z,12.00
2018-04-18T11:45:42.733Z,14.70
2018-04-18T11:46:42.740Z,14.60
2018-04-18T11:47:42.751Z,10.60
2018-04-18T11:48:42.689Z,11.70
2018-04-18T11:49:42.683Z,9.20
2018-04-18T11:50:42.675Z,10.80
2018-04-18T11:51:42.660Z,10.80
2018-04-18T11:52:42.646Z,10.90
2018-04-18T11:53:42.656Z,8.10
2018-04-18T11:54:42.639Z,7.70
2018-04-18T11:55:42.616Z,12.10
2018-04-18T11:56:42.615Z,14.70
2018-04-18T11:57:42.627Z,12.50
2018-04-18T11:58:42.587Z,12.30
2018-04-18T11:59:42.611Z,9.90
2018-04-18T12:00:42.566Z,12.30
2018-04-18T12:01:42.563Z,9.70
2018-04-18T12:02:42.546Z,9.10
2018-04-18T12:03:42.537Z,11.90
2018-04-18T12:04:42.527Z,27.90
2018-04-18T12:05:42.523Z,19.20
2018-04-18T12:06:42.507Z,14.50
2018-04-18T12:07:42.498Z,14.80
2018-04-18T12:08:42.493Z,18.00
2018-04-18T12:09:42.531Z,22.40
2018-04-18T12:10:42.468Z,21.80
2018-04-18T12:11:42.469Z,12.80
2018-04-18T12:12:42.455Z,11.00
2018-04-18T12:13:42.444Z,11.90
2018-04-18T12:14:42.430Z,19.30
2018-04-18T12:15:42.438Z,29.10
2018-04-18T12:16:42.419Z,18.50
2018-04-18T12:17:42.403Z,22.10
2018-04-18T12:18:42.404Z,12.60
2018-04-18T12:19:42.388Z,14.60
2018-04-18T12:20:42.381Z,12.60
2018-04-18T12:21:42.365Z,17.10
2018-04-18T12:22:42.365Z,14.30
2018-04-18T12:23:42.364Z,13.10
2018-04-18T12:24:42.352Z,12.70
2018-04-18T12:25:42.357Z,13.70
2018-04-18T12:26:42.384Z,13.40
2018-04-18T12:27:42.315Z,17.30
2018-04-18T12:28:42.298Z,12.90
2018-04-18T12:29:42.289Z,14.70
2018-04-18T12:30:42.279Z,13.30
2018-04-18T12:31:42.271Z,17.20
2018-04-18T12:32:42.261Z,15.10
2018-04-18T12:33:42.254Z,13.50
2018-04-18T12:34:42.241Z,18.80
2018-04-18T12:35:42.236Z,11.80
2018-04-18T12:36:42.231Z,11.40
2018-04-18T12:37:42.222Z,12.80
2018-04-18T12:38:42.205Z,17.10
2018-04-18T12:39:42.196Z,19.80
2018-04-18T12:40:42.187Z,13.80
2018-04-18T12:41:42.178Z,13.30
2018-04-18T12:42:42.177Z,11.90
2018-04-18T12:43:42.161Z,11.80
2018-04-18T12:44:42.150Z,12.50
2018-04-18T12:45:42.140Z,12.00
2018-04-18T12:46:42.129Z,12.10
2018-04-18T12:47:42.125Z,13.60
2018-04-18T12:48:42.110Z,12.60
2018-04-18T12:49:42.100Z,14.10
2018-04-18T12:50:42.092Z,12.20
2018-04-18T12:51:42.081Z,12.50
2018-04-18T12:52:42.080Z,13.40
2018-04-18T12:53:42.063Z,13.10